createdAt,value
2022-11-04T00:01:59.295Z,99436.06
2022-11-04T00:04:27.254Z,99426.59
2022-11-04T00:06:54.572Z,99454.16
2022-11-04T00:09:23.499Z,99448.88
2022-11-04T00:12:09.105Z,99433.63
2022-11-04T00:14:36.449Z,99449.94
2022-11-04T00:17:22.481Z,99447.22
2022-11-04T00:20:09.754Z,99421.88
2022-11-04T00:22:55.700Z,99438.88
2022-11-04T00:28:33.879Z,99453.56
2022-11-04T00:31:19.924Z,99450.91
2022-11-04T00:33:48.795Z,99447.63
2022-11-04T00:36:15.809Z,99441.59
2022-11-04T00:38:42.683Z,99441.66
2022-11-04T00:41:26.417Z,99432.28
2022-11-04T00:43:54.117Z,99453.81
2022-11-04T00:46:20.873Z,99449.66
2022-11-04T00:48:50.751Z,99443.88
2022-11-04T00:51:17.448Z,99449.59
2022-11-04T00:53:44.172Z,99420.69
2022-11-04T00:56:10.855Z,99455.00
2022-11-04T00:58:37.504Z,99446.22
2022-11-04T01:01:17.852Z,99445.38
2022-11-04T01:03:45.869Z,99446.22
2022-11-04T01:06:12.679Z,99445.03
2022-11-04T01:08:40.345Z,99429.53
2022-11-04T01:11:08.545Z,99447.41
2022-11-04T01:13:36.179Z,99423.59
2022-11-04T01:16:04.975Z,99445.09
2022-11-04T01:18:31.700Z,99429.13
2022-11-04T01:21:02.713Z,99446.22
2022-11-04T01:23:29.444Z,99443.72
2022-11-04T01:25:56.387Z,99446.13
2022-11-04T01:28:23.243Z,99438.66
2022-11-04T01:30:49.864Z,99445.28
2022-11-04T01:33:16.519Z,99442.66
2022-11-04T01:35:43.146Z,99426.56
2022-11-04T01:38:10.103Z,99384.97
2022-11-04T01:40:38.085Z,99436.78
2022-11-04T01:43:13.280Z,99436.06
2022-11-04T01:45:39.932Z,99433.34
2022-11-04T01:48:13.467Z,99441.22
2022-11-04T01:50:40.162Z,99435.19
2022-11-04T01:53:09.368Z,99416.53
2022-11-04T01:55:41.881Z,99436.84
2022-11-04T01:58:11.568Z,99440.47
2022-11-04T02:00:39.551Z,99414.88
2022-11-04T02:03:18.544Z,99429.19
2022-11-04T02:05:46.477Z,99445.50
2022-11-04T02:08:14.675Z,99414.69
2022-11-04T02:10:43.125Z,99431.13
2022-11-04T02:13:09.948Z,99432.56
2022-11-04T02:15:45.560Z,99441.22
2022-11-04T02:18:27.515Z,99446.56
2022-11-04T02:21:18.692Z,99444.69
2022-11-04T02:24:13.133Z,99423.41
2022-11-04T02:26:45.532Z,99430.09
2022-11-04T02:29:26.387Z,99431.13
2022-11-04T02:32:11.652Z,99431.19
2022-11-04T02:34:41.275Z,99432.63
2022-11-04T02:37:19.898Z,99433.81
2022-11-04T02:40:05.723Z,99429.53
2022-11-04T02:43:29.595Z,99423.53
2022-11-04T02:46:10.769Z,99429.44
2022-11-04T02:48:41.543Z,99422.59
2022-11-04T02:51:12.788Z,99428.53
2022-11-04T02:53:44.315Z,99433.13
2022-11-04T02:56:12.104Z,99429.53
2022-11-04T02:58:46.375Z,99419.78
2022-11-04T03:01:15.289Z,99423.91
2022-11-04T03:03:47.366Z,99417.84
2022-11-04T03:06:15.614Z,99414.44
2022-11-04T03:08:46.714Z,99431.84
2022-11-04T03:11:19.983Z,99436.03
2022-11-04T03:14:04.245Z,99444.41
2022-11-04T03:16:39.871Z,99431.72
2022-11-04T03:19:15.574Z,99441.38
2022-11-04T03:21:55.552Z,99445.59
2022-11-04T03:24:22.253Z,99437.75
2022-11-04T03:26:57.759Z,99436.28
2022-11-04T03:29:31.361Z,99436.38
2022-11-04T03:32:03.967Z,99440.47
2022-11-04T03:34:30.702Z,99439.66
2022-11-04T03:36:57.534Z,99442.28
2022-11-04T03:39:24.413Z,99435.25
2022-11-04T03:41:56.963Z,99432.81
2022-11-04T03:44:24.832Z,99433.66
2022-11-04T03:46:54.617Z,99429.34
2022-11-04T03:49:22.744Z,99432.72
2022-11-04T03:51:51.243Z,99429.97
2022-11-04T03:54:18.273Z,99424.00
2022-11-04T03:56:53.884Z,99426.72
2022-11-04T03:59:31.202Z,99423.16
2022-11-04T04:02:07.139Z,99423.09
2022-11-04T04:04:39.943Z,99421.34
2022-11-04T04:07:15.373Z,99420.63
2022-11-04T04:09:51.041Z,99413.81
2022-11-04T04:12:34.061Z,99417.56
2022-11-04T04:15:10.264Z,99426.06
2022-11-04T04:17:40.062Z,99422.38
2022-11-04T04:20:11.470Z,99421.50
2022-11-04T04:22:44.190Z,99433.31
2022-11-04T04:25:29.871Z,99435.44
2022-11-04T04:27:56.804Z,99442.41
2022-11-04T04:30:23.829Z,99431.22
2022-11-04T04:32:57.147Z,99439.00
2022-11-04T04:35:43.831Z,99438.22
2022-11-04T04:38:43.860Z,99439.84
2022-11-04T04:41:51.130Z,99441.72
2022-11-04T04:44:44.268Z,99447.50
2022-11-04T04:47:20.112Z,99439.72
2022-11-04T04:50:05.852Z,99438.00
2022-11-04T04:52:35.211Z,99437.38
2022-11-04T04:55:01.828Z,99436.34
2022-11-04T04:57:28.480Z,99437.81
2022-11-04T04:59:55.123Z,99431.94
2022-11-04T05:02:21.931Z,99428.34
2022-11-04T05:04:48.634Z,99436.22
2022-11-04T05:07:15.439Z,99437.22
2022-11-04T05:09:42.035Z,99438.09
2022-11-04T05:12:10.028Z,99436.22
2022-11-04T05:14:36.716Z,99447.50
2022-11-04T05:17:03.670Z,99444.22
2022-11-04T05:19:30.384Z,99450.59
2022-11-04T05:21:57.031Z,99444.72
2022-11-04T05:24:23.619Z,99460.88
2022-11-04T05:26:50.221Z,99457.22
2022-11-04T05:29:16.863Z,99460.00
2022-11-04T05:31:43.547Z,99458.16
2022-11-04T05:34:14.007Z,99454.50
2022-11-04T05:36:40.840Z,99465.59
2022-11-04T05:39:08.020Z,99467.44
2022-11-04T05:41:35.100Z,99485.34
2022-11-04T05:44:03.593Z,99480.09
2022-11-04T05:46:31.122Z,99481.34
2022-11-04T05:48:57.830Z,99485.59
2022-11-04T05:51:26.938Z,99487.34
2022-11-04T05:53:53.898Z,99486.41
2022-11-04T05:56:20.668Z,99490.31
2022-11-04T05:58:47.293Z,99500.63
2022-11-04T06:01:24.654Z,99483.19
2022-11-04T06:03:52.382Z,99489.44
2022-11-04T06:06:19.206Z,99485.31
2022-11-04T06:08:45.791Z,99496.41
2022-11-04T06:11:12.713Z,99495.34
2022-11-04T06:13:39.318Z,99485.97
2022-11-04T06:16:06.160Z,99491.19
2022-11-04T06:18:32.807Z,99490.25
2022-11-04T06:21:14.637Z,99477.69
2022-11-04T06:23:41.901Z,99481.19
2022-11-04T06:26:09.485Z,99485.41
2022-11-04T06:28:36.400Z,99476.13
2022-11-04T06:31:04.810Z,99470.97
2022-11-04T06:33:36.515Z,99473.75
2022-11-04T06:36:05.687Z,99468.69
2022-11-04T06:38:34.019Z,99471.44
2022-11-04T06:41:00.758Z,99467.06
2022-11-04T06:43:27.499Z,99467.28
2022-11-04T06:45:55.212Z,99468.53
2022-11-04T06:48:22.078Z,99467.59
2022-11-04T06:50:48.738Z,99472.47
2022-11-04T10:16:51.210Z,99466.88
2022-11-04T10:19:38.098Z,99467.69
2022-11-04T10:22:11.832Z,99460.88
2022-11-04T10:24:45.926Z,99462.59
2022-11-04T10:27:27.930Z,99458.28
2022-11-04T10:30:01.478Z,99467.06
2022-11-04T10:32:53.187Z,99455.69
2022-11-04T10:35:45.512Z,99458.72
2022-11-04T10:38:22.644Z,99456.34
2022-11-04T10:40:52.484Z,99451.75
2022-11-04T10:43:31.009Z,99442.09
2022-11-04T10:46:10.418Z,99437.06
2022-11-04T10:48:44.319Z,99428.41
2022-11-04T10:51:11.404Z,99430.03
2022-11-04T10:53:38.117Z,99416.31
2022-11-04T10:56:10.714Z,99424.34
2022-11-04T10:58:43.587Z,99426.69
2022-11-04T11:01:31.896Z,99424.63
2022-11-04T11:03:59.444Z,99426.50
2022-11-04T11:06:29.489Z,99418.31
2022-11-04T11:09:15.155Z,99428.34
2022-11-04T11:11:47.449Z,99416.03
2022-11-04T11:14:32.614Z,99418.97
2022-11-04T11:17:14.569Z,99414.69
2022-11-04T11:20:08.447Z,99411.72
2022-11-04T11:22:40.826Z,99414.25
2022-11-04T11:25:22.720Z,99410.09
2022-11-04T11:27:52.103Z,99400.16
2022-11-04T11:30:28.326Z,99405.00
2022-11-04T11:33:04.068Z,99402.50
2022-11-04T11:35:42.911Z,99401.97
2022-11-04T11:38:19.031Z,99392.09
2022-11-04T11:41:10.499Z,99394.44
2022-11-04T11:43:35.765Z,99400.81
2022-11-04T11:46:03.387Z,99384.72
2022-11-04T11:48:31.235Z,99387.00
2022-11-04T11:50:58.863Z,99386.44
2022-11-04T11:53:27.138Z,99390.44
2022-11-04T11:55:59.978Z,99398.00
2022-11-04T12:01:29.805Z,99405.19
2022-11-04T12:09:55.218Z,99401.06
2022-11-04T12:12:43.035Z,99409.38
2022-11-04T12:15:17.877Z,99402.41
2022-11-04T12:17:55.631Z,99374.91
2022-11-04T12:20:25.493Z,99398.97
2022-11-04T12:22:55.347Z,99399.69
2022-11-04T12:26:01.782Z,99402.63
2022-11-04T12:28:40.538Z,99411.75
2022-11-04T12:31:32.839Z,99404.84
2022-11-04T12:34:02.278Z,99403.00
2022-11-04T12:36:44.194Z,99402.22
2022-11-04T12:39:15.024Z,99400.22
2022-11-04T12:42:19.670Z,99398.75
2022-11-04T12:44:46.852Z,99396.38
2022-11-04T12:47:19.707Z,99405.97
2022-11-04T12:50:09.613Z,99405.97
2022-11-04T12:52:55.163Z,99412.53
2022-11-04T12:55:43.885Z,99413.25
2022-11-04T12:58:58.375Z,99412.34
2022-11-04T13:01:30.475Z,99422.66
2022-11-04T13:04:33.231Z,99420.69
2022-11-04T13:07:14.700Z,99414.22
2022-11-04T13:09:55.350Z,99413.84
2022-11-04T13:12:29.474Z,99416.44
2022-11-04T13:14:57.533Z,99417.16
2022-11-04T13:17:34.928Z,99403.25
2022-11-04T13:20:07.524Z,99411.69
2022-11-04T13:22:36.651Z,99406.28
2022-11-04T13:25:29.508Z,99410.44
2022-11-04T13:27:57.140Z,99409.13
2022-11-04T13:30:39.981Z,99406.88
2022-11-04T13:33:36.108Z,99410.53
2022-11-04T13:36:02.624Z,99416.06
2022-11-04T13:38:35.558Z,99416.06
2022-11-04T13:41:22.096Z,99406.47
2022-11-04T13:44:16.392Z,99402.47
2022-11-04T13:46:48.425Z,99409.50
2022-11-04T13:49:18.096Z,99414.38
2022-11-04T13:51:47.053Z,99416.56
2022-11-04T13:54:35.875Z,99415.88
2022-11-04T13:57:10.445Z,99423.06
2022-11-04T13:59:37.323Z,99423.38
2022-11-04T14:02:18.982Z,99428.41
2022-11-04T14:04:46.912Z,99422.59
2022-11-04T14:07:17.880Z,99417.00
2022-11-04T14:09:44.531Z,99434.03
2022-11-04T14:12:11.166Z,99435.06
2022-11-04T14:14:39.484Z,99427.06
2022-11-04T14:17:35.008Z,99442.72
2022-11-04T14:20:22.113Z,99443.69
2022-11-04T14:23:00.267Z,99438.78
2022-11-04T14:25:28.696Z,99439.56
2022-11-04T14:28:02.800Z,99446.53
2022-11-04T14:30:44.462Z,99436.16
2022-11-04T14:33:24.036Z,99432.72
2022-11-04T14:35:55.222Z,99440.81
2022-11-04T14:38:28.942Z,99402.88
2022-11-04T14:41:15.912Z,99438.66
2022-11-04T14:43:45.137Z,99435.81
2022-11-04T14:46:13.660Z,99428.81
2022-11-04T14:48:44.334Z,99438.66
2022-11-04T14:51:27.813Z,99432.44
2022-11-04T14:54:13.664Z,99425.59
2022-11-04T14:56:41.682Z,99449.94
2022-11-04T14:59:08.399Z,99430.28
2022-11-04T15:01:37.837Z,99442.44
2022-11-04T15:04:26.924Z,99437.94
2022-11-04T15:06:58.652Z,99402.69
2022-11-04T15:09:27.873Z,99433.31
2022-11-04T15:12:39.423Z,99433.31
2022-11-04T15:15:32.054Z,99435.81
2022-11-04T15:18:05.245Z,99439.19
2022-11-04T15:20:32.737Z,99430.53
2022-11-04T15:23:01.846Z,99429.53
2022-11-04T15:25:28.636Z,99434.16
2022-11-04T15:27:56.466Z,99431.53
2022-11-04T15:30:26.392Z,99430.75
2022-11-04T15:33:02.503Z,99431.59
2022-11-04T15:35:30.643Z,99434.16
2022-11-04T15:37:58.491Z,99430.59
2022-11-04T15:40:27.293Z,99434.53
2022-11-04T15:42:54.140Z,99435.25
2022-11-04T15:45:35.377Z,99434.53
2022-11-04T15:48:39.924Z,99424.03
2022-11-04T15:51:06.584Z,99428.34
2022-11-04T15:53:35.025Z,99425.13
2022-11-04T15:56:01.939Z,99428.53
2022-11-04T15:58:28.970Z,99431.31
2022-11-04T19:27:30.983Z,99456.81
2022-11-04T19:29:57.652Z,99469.44
2022-11-04T19:32:24.265Z,99477.41
2022-11-04T19:34:51.018Z,99471.63
2022-11-04T19:37:17.868Z,99470.66
2022-11-04T19:39:44.538Z,99468.81
2022-11-04T19:42:30.687Z,99477.41
2022-11-04T19:44:58.063Z,99481.69
2022-11-04T19:47:25.036Z,99468.03
2022-11-04T19:49:51.710Z,99488.63
2022-11-04T19:52:18.674Z,99492.22
2022-11-04T19:54:45.269Z,99482.72
2022-11-04T19:57:11.933Z,99489.41
2022-11-04T19:59:40.397Z,99464.06
2022-11-04T20:02:07.123Z,99455.41
2022-11-04T20:04:33.814Z,99482.00
2022-11-04T20:07:00.404Z,99474.22
2022-11-04T20:09:27.075Z,99479.16
2022-11-04T20:12:12.476Z,99479.34
2022-11-04T20:14:39.181Z,99481.28
2022-11-04T20:17:06.935Z,99473.84
2022-11-04T20:19:34.964Z,99487.25
2022-11-04T20:22:01.752Z,99490.25
2022-11-04T20:24:28.672Z,99491.22
2022-11-04T20:26:55.362Z,99484.09
2022-11-04T20:29:22.035Z,99484.25
2022-11-04T20:31:48.927Z,99485.00
2022-11-04T20:34:15.669Z,99481.72
2022-11-04T20:36:42.854Z,99493.03
2022-11-04T20:39:14.425Z,99497.25
2022-11-04T20:41:41.661Z,99498.88
2022-11-04T20:44:10.737Z,99497.09
2022-11-04T20:46:40.478Z,99503.97
2022-11-04T20:49:07.241Z,99503.53
2022-11-04T20:51:36.178Z,99503.44
2022-11-04T20:54:04.659Z,99499.19
2022-11-04T20:56:34.104Z,99507.91
2022-11-04T20:59:01.607Z,99518.63
2022-11-04T21:01:33.438Z,99512.72
2022-11-04T21:04:01.400Z,99508.44
2022-11-04T21:06:28.583Z,99507.69
2022-11-04T21:08:55.641Z,99511.38
2022-11-04T21:11:25.224Z,99491.81
2022-11-04T21:13:54.835Z,99484.16
2022-11-04T21:16:21.812Z,99497.75
2022-11-04T21:18:48.502Z,99510.84
2022-11-04T21:21:16.302Z,99505.94
2022-11-04T21:23:43.312Z,99504.41
2022-11-04T21:26:21.540Z,99501.91
2022-11-04T21:28:51.702Z,99504.78
2022-11-04T21:31:18.295Z,99499.16
2022-11-04T21:33:44.903Z,99501.28
2022-11-04T21:36:12.492Z,99512.69
2022-11-04T21:38:39.855Z,99510.47
2022-11-04T21:41:09.204Z,99509.88
2022-11-04T21:43:36.026Z,99505.75
2022-11-04T21:46:11.206Z,99515.44
2022-11-04T21:48:37.899Z,99512.06
2022-11-04T21:51:07.237Z,99512.13
2022-11-04T21:53:33.917Z,99509.50
2022-11-04T21:56:12.859Z,99516.09
2022-11-04T21:58:39.894Z,99523.41
2022-11-04T22:01:07.974Z,99516.72
2022-11-04T22:03:35.150Z,99519.28
2022-11-04T22:06:01.765Z,99517.41
2022-11-04T22:08:28.952Z,99525.06
2022-11-04T22:10:56.017Z,99515.41
2022-11-04T22:13:23.145Z,99516.41
2022-11-04T22:15:58.865Z,99519.97
2022-11-04T22:18:26.811Z,99512.25
2022-11-04T22:20:53.640Z,99512.94
2022-11-04T22:23:20.249Z,99520.69
2022-11-04T22:25:50.159Z,99523.44
2022-11-04T22:28:17.359Z,99523.63
2022-11-04T22:30:44.083Z,99522.22
2022-11-04T22:33:11.126Z,99525.69
2022-11-04T22:35:37.976Z,99529.38
2022-11-04T22:38:04.711Z,99522.69
2022-11-04T22:40:31.557Z,99522.69
2022-11-04T22:42:58.435Z,99520.13
2022-11-04T22:45:25.046Z,99533.16
2022-11-04T22:47:51.708Z,99536.03
2022-11-04T22:50:18.635Z,99523.59
2022-11-04T22:52:45.509Z,99533.31
2022-11-04T22:55:13.792Z,99538.66
2022-11-04T22:57:41.315Z,99538.03
2022-11-04T23:00:10.334Z,99535.56
2022-11-04T23:02:45.618Z,99524.66
2022-11-04T23:05:13.580Z,99551.13
2022-11-04T23:07:41.514Z,99549.34
2022-11-04T23:10:27.281Z,99565.38
2022-11-04T23:13:12.657Z,99560.19
2022-11-04T23:15:58.538Z,99566.25
2022-11-04T23:18:43.419Z,99573.25
2022-11-04T23:21:31.010Z,99575.19
2022-11-04T23:24:16.170Z,99572.69
2022-11-04T23:26:43.129Z,99579.91
2022-11-04T23:29:28.365Z,99582.81
2022-11-04T23:31:54.978Z,99575.34
2022-11-04T23:34:40.435Z,99575.56
2022-11-04T23:37:13.147Z,99581.00
2022-11-04T23:39:47.408Z,99579.13
2022-11-04T23:42:19.459Z,99579.41
2022-11-04T23:45:08.430Z,99592.47
2022-11-04T23:47:56.246Z,99593.59
2022-11-04T23:50:42.921Z,99594.34
2022-11-04T23:53:30.622Z,99598.81
2022-11-04T23:56:16.187Z,99599.19
2022-11-04T23:59:01.486Z,99604.41
